createdAt,value
2018-06-09T00:00:59.558Z,20.10
2018-06-09T00:03:28.363Z,20.10
2018-06-09T00:05:57.166Z,20.10
2018-06-09T00:08:26.039Z,20.10
2018-06-09T00:10:54.846Z,20.10
2018-06-09T00:13:23.645Z,20.10
2018-06-09T00:15:52.459Z,20.10
2018-06-09T00:18:21.255Z,20.10
2018-06-09T00:20:50.366Z,20.10
2018-06-09T00:23:19.166Z,20.10
2018-06-09T00:25:47.986Z,20.10
2018-06-09T00:28:16.786Z,20.00
2018-06-09T00:30:45.942Z,20.00
2018-06-09T00:33:14.746Z,19.90
2018-06-09T00:35:43.550Z,19.90
2018-06-09T00:38:12.368Z,19.90
2018-06-09T00:40:41.166Z,19.90
2018-06-09T00:43:09.973Z,19.90
2018-06-09T00:45:38.783Z,19.80
2018-06-09T00:48:07.600Z,19.80
2018-06-09T00:50:36.407Z,19.80
2018-06-09T00:53:05.214Z,19.80
2018-06-09T00:55:34.031Z,19.80
2018-06-09T00:58:02.851Z,19.70
2018-06-09T01:00:31.659Z,19.70
2018-06-09T01:03:00.466Z,19.70
2018-06-09T01:05:29.371Z,19.60
2018-06-09T01:07:58.186Z,19.70
2018-06-09T01:10:27.002Z,19.60
2018-06-09T01:12:55.802Z,19.50
2018-06-09T01:15:25.610Z,19.50
2018-06-09T01:17:54.422Z,19.50
2018-06-09T01:20:24.074Z,19.40
2018-06-09T01:22:52.894Z,19.40
2018-06-09T01:25:21.707Z,19.40
2018-06-09T01:27:50.514Z,19.40
2018-06-09T01:30:19.315Z,19.40
2018-06-09T01:32:48.131Z,19.30
2018-06-09T01:35:16.930Z,19.30
2018-06-09T01:37:45.736Z,19.20
2018-06-09T01:40:14.531Z,19.20
2018-06-09T01:42:43.362Z,19.20
2018-06-09T01:45:12.154Z,19.20
2018-06-09T01:47:40.965Z,19.20
2018-06-09T01:50:09.778Z,19.20
2018-06-09T01:52:38.642Z,19.10
2018-06-09T01:55:07.459Z,19.10
2018-06-09T01:57:36.268Z,19.10
2018-06-09T02:00:05.098Z,19.00
2018-06-09T02:02:33.904Z,19.00
2018-06-09T02:05:02.742Z,19.00
2018-06-09T02:07:31.547Z,19.00
2018-06-09T02:10:00.351Z,19.00
2018-06-09T02:12:29.199Z,18.90
2018-06-09T02:14:58.012Z,18.90
2018-06-09T02:17:26.811Z,18.90
2018-06-09T02:19:55.613Z,18.90
2018-06-09T02:22:24.453Z,18.90
2018-06-09T02:24:53.828Z,18.90
2018-06-09T02:27:22.725Z,18.90
2018-06-09T02:29:51.554Z,18.90
2018-06-09T02:32:20.342Z,18.80
2018-06-09T02:34:49.179Z,18.80
2018-06-09T02:37:17.977Z,18.70
2018-06-09T02:39:46.824Z,18.70
2018-06-09T02:42:15.626Z,18.70
2018-06-09T02:44:44.740Z,18.70
2018-06-09T02:47:13.548Z,18.70
2018-06-09T02:49:42.346Z,18.70
2018-06-09T02:52:11.145Z,18.70
2018-06-09T02:54:39.956Z,18.70
2018-06-09T02:59:37.251Z,18.70
2018-06-09T03:02:06.044Z,18.60
2018-06-09T03:04:34.842Z,18.60
2018-06-09T03:07:03.656Z,18.60
2018-06-09T03:09:32.470Z,18.60
2018-06-09T03:12:01.339Z,18.60
2018-06-09T03:14:30.153Z,18.60
2018-06-09T03:16:58.955Z,18.60
2018-06-09T03:19:27.777Z,18.60
2018-06-09T03:21:56.669Z,18.60
2018-06-09T03:24:25.465Z,18.60
2018-06-09T03:26:54.342Z,18.60
2018-06-09T03:29:23.207Z,18.70
2018-06-09T03:31:52.012Z,18.80
2018-06-09T03:34:21.327Z,18.90
2018-06-09T03:36:50.147Z,19.10
2018-06-09T03:39:19.006Z,19.20
2018-06-09T03:41:47.810Z,19.40
2018-06-09T03:44:16.632Z,19.50
2018-06-09T03:46:45.426Z,19.50
2018-06-09T03:49:14.231Z,19.60
2018-06-09T03:51:43.147Z,19.50
2018-06-09T03:54:11.949Z,19.60
2018-06-09T03:56:40.759Z,19.70
2018-06-09T03:59:09.570Z,19.90
2018-06-09T04:01:38.383Z,20.10
2018-06-09T04:04:07.195Z,20.20
2018-06-09T04:06:36.008Z,20.30
2018-06-09T04:09:07.236Z,20.30
2018-06-09T04:11:36.709Z,20.30
2018-06-09T04:14:05.967Z,20.50
2018-06-09T04:16:34.778Z,20.60
2018-06-09T04:19:03.567Z,20.80
2018-06-09T04:21:32.361Z,21.20
2018-06-09T04:24:01.160Z,21.50
2018-06-09T04:26:29.989Z,21.80
2018-06-09T04:28:58.767Z,22.20
2018-06-09T04:31:27.575Z,22.50
2018-06-09T04:33:56.440Z,22.90
2018-06-09T04:36:25.240Z,23.50
2018-06-09T04:38:54.026Z,24.00
2018-06-09T04:41:22.886Z,24.50
2018-06-09T04:43:51.678Z,24.90
2018-06-09T04:46:20.575Z,25.20
2018-06-09T04:48:49.377Z,25.50
2018-06-09T04:51:18.203Z,25.70
2018-06-09T04:53:47.003Z,26.00
2018-06-09T04:56:15.804Z,26.10
2018-06-09T04:58:44.595Z,26.40
2018-06-09T05:01:13.400Z,26.70
2018-06-09T05:03:42.298Z,27.00
2018-06-09T05:06:11.110Z,27.20
2018-06-09T05:08:39.922Z,27.50
2018-06-09T05:11:08.760Z,27.60
2018-06-09T05:13:37.562Z,27.80
2018-06-09T05:16:06.810Z,28.30
2018-06-09T05:18:35.622Z,28.90
2018-06-09T05:21:04.423Z,29.20
2018-06-09T05:23:33.336Z,29.90
2018-06-09T05:26:02.135Z,30.90
2018-06-09T05:28:31.377Z,31.90
2018-06-09T05:31:00.279Z,33.40
2018-06-09T05:33:29.139Z,34.40
2018-06-09T05:35:58.000Z,35.20
2018-06-09T05:38:26.785Z,35.90
2018-06-09T05:40:55.635Z,36.40
2018-06-09T05:43:24.451Z,36.70
2018-06-09T05:45:53.245Z,37.00
2018-06-09T05:48:22.103Z,37.80
2018-06-09T05:50:50.987Z,38.40
2018-06-09T05:53:19.786Z,38.60
2018-06-09T05:55:48.710Z,38.20
2018-06-09T05:58:17.495Z,37.70
2018-06-09T06:00:46.295Z,36.90
2018-06-09T06:03:15.232Z,37.60
2018-06-09T06:05:44.035Z,38.00
2018-06-09T06:08:12.856Z,38.70
2018-06-09T06:10:41.655Z,39.60
2018-06-09T06:13:10.488Z,40.20
2018-06-09T06:15:39.282Z,40.90
2018-06-09T06:18:08.095Z,41.00
2018-06-09T06:20:37.187Z,40.40
2018-06-09T06:23:06.016Z,40.20
2018-06-09T06:25:34.875Z,40.40
2018-06-09T06:28:03.825Z,40.50
2018-06-09T06:30:32.613Z,40.00
2018-06-09T06:33:01.404Z,40.70
2018-06-09T06:35:30.194Z,41.10
2018-06-09T06:37:59.075Z,40.60
2018-06-09T06:40:28.079Z,40.40
2018-06-09T06:42:56.883Z,41.20
2018-06-09T06:45:25.720Z,41.30
2018-06-09T06:47:54.576Z,40.60
2018-06-09T06:50:23.422Z,41.30
2018-06-09T06:52:52.170Z,41.70
2018-06-09T06:55:20.967Z,40.70
2018-06-09T06:57:49.766Z,40.10
2018-06-09T07:00:18.571Z,40.40
2018-06-09T07:02:47.364Z,40.70
2018-06-09T07:05:16.162Z,40.90
2018-06-09T07:07:45.034Z,40.70
2018-06-09T07:10:13.928Z,40.00
2018-06-09T07:12:42.723Z,38.20
2018-06-09T07:15:11.524Z,36.70
2018-06-09T07:17:40.396Z,35.80
2018-06-09T07:20:09.211Z,34.90
2018-06-09T07:22:38.010Z,34.20
2018-06-09T07:25:06.855Z,33.10
2018-06-09T07:28:01.006Z,33.00
2018-06-09T07:30:29.785Z,33.30
2018-06-09T07:33:06.583Z,34.40
2018-06-09T07:35:36.275Z,34.50
2018-06-09T07:38:05.071Z,33.80
2018-06-09T07:40:33.873Z,33.10
2018-06-09T07:43:02.683Z,32.20
2018-06-09T07:45:31.487Z,31.90
2018-06-09T07:48:00.436Z,31.50
2018-06-09T07:50:29.155Z,31.50
2018-06-09T07:52:57.937Z,31.60
2018-06-09T07:55:26.756Z,32.00
2018-06-09T07:57:55.562Z,32.30
2018-06-09T08:00:24.339Z,32.30
2018-06-09T08:05:21.656Z,31.20
2018-06-09T08:07:50.438Z,31.00
2018-06-09T08:10:19.266Z,31.00
2018-06-09T08:12:48.064Z,31.30
2018-06-09T08:15:16.863Z,31.10
2018-06-09T08:17:45.690Z,31.30
2018-06-09T08:20:14.591Z,31.10
2018-06-09T08:22:43.391Z,31.20
2018-06-09T08:25:12.188Z,31.00
2018-06-09T08:27:40.991Z,30.80
2018-06-09T08:30:09.766Z,30.60
2018-06-09T08:32:38.579Z,30.80
2018-06-09T08:35:07.416Z,30.80
2018-06-09T08:37:36.220Z,31.00
2018-06-09T08:40:05.025Z,31.20
2018-06-09T08:42:33.820Z,31.70
2018-06-09T08:45:02.614Z,31.70
2018-06-09T08:47:31.415Z,31.60
2018-06-09T08:50:00.194Z,31.90
2018-06-09T08:52:29.024Z,32.30
2018-06-09T08:54:57.844Z,32.50
2018-06-09T08:57:26.649Z,32.70
2018-06-09T08:59:55.440Z,32.70
2018-06-09T09:02:24.279Z,32.70
2018-06-09T09:04:53.066Z,32.90
2018-06-09T09:07:21.887Z,33.00
2018-06-09T09:09:51.043Z,32.80
2018-06-09T09:12:20.481Z,32.50
2018-06-09T09:14:49.278Z,32.50
2018-06-09T09:17:18.703Z,32.40
2018-06-09T09:19:47.496Z,32.70
2018-06-09T09:22:16.970Z,33.00
2018-06-09T09:24:46.254Z,32.70
2018-06-09T09:27:15.046Z,32.90
2018-06-09T09:29:43.959Z,32.40
2018-06-09T09:32:12.755Z,32.20
2018-06-09T09:34:41.535Z,32.00
2018-06-09T09:37:10.992Z,31.60
2018-06-09T09:39:39.796Z,32.20
2018-06-09T09:42:08.641Z,32.80
2018-06-09T09:44:37.451Z,32.10
2018-06-09T09:47:06.244Z,31.80
2018-06-09T09:49:35.047Z,31.30
2018-06-09T09:52:03.850Z,30.40
2018-06-09T09:54:32.716Z,30.00
2018-06-09T09:57:01.516Z,30.10
2018-06-09T09:59:30.324Z,30.40
2018-06-09T10:01:59.175Z,30.80
2018-06-09T10:04:28.341Z,30.60
2018-06-09T10:06:57.188Z,30.20
2018-06-09T10:09:26.017Z,30.40
2018-06-09T10:11:54.810Z,30.40
2018-06-09T10:14:23.640Z,30.40
2018-06-09T10:16:52.435Z,30.70
2018-06-09T10:19:21.233Z,30.40
2018-06-09T10:21:50.060Z,30.10
2018-06-09T10:24:18.866Z,29.50
2018-06-09T10:26:47.670Z,29.40
2018-06-09T10:29:16.488Z,29.20
2018-06-09T10:31:45.937Z,28.60
2018-06-09T10:34:14.745Z,28.20
2018-06-09T10:36:43.635Z,28.00
2018-06-09T10:39:12.452Z,28.00
2018-06-09T10:41:41.272Z,27.90
2018-06-09T10:44:10.057Z,27.60
2018-06-09T10:49:07.500Z,27.40
2018-06-09T10:51:36.316Z,27.30
2018-06-09T10:54:05.134Z,27.40
2018-06-09T10:56:33.951Z,27.40
2018-06-09T10:59:02.795Z,27.50
2018-06-09T11:01:31.602Z,27.50
2018-06-09T11:04:00.560Z,27.40
2018-06-09T11:06:29.355Z,27.30
2018-06-09T11:08:58.178Z,27.10
2018-06-09T11:11:27.011Z,27.10
2018-06-09T11:13:55.840Z,27.10
2018-06-09T11:16:24.660Z,27.10
2018-06-09T11:18:53.476Z,27.00
2018-06-09T11:21:22.305Z,27.00
2018-06-09T11:23:51.457Z,27.00
2018-06-09T11:26:20.259Z,26.80
2018-06-09T11:28:49.058Z,26.70
2018-06-09T11:31:17.880Z,26.70
2018-06-09T11:33:46.705Z,26.90
2018-06-09T11:36:15.511Z,26.90
2018-06-09T11:38:44.338Z,26.80
2018-06-09T11:41:13.851Z,26.90
2018-06-09T11:43:42.677Z,27.10
2018-06-09T11:46:11.490Z,27.20
2018-06-09T11:51:08.804Z,27.40
2018-06-09T11:53:37.603Z,27.40
2018-06-09T11:56:06.472Z,27.40
2018-06-09T11:58:35.314Z,27.20
2018-06-09T12:01:04.070Z,27.10
2018-06-09T12:03:32.885Z,27.00
2018-06-09T12:06:01.725Z,26.90
2018-06-09T12:08:30.537Z,26.80
2018-06-09T12:10:59.406Z,26.80
2018-06-09T12:13:28.287Z,26.70
2018-06-09T12:15:57.740Z,26.70
2018-06-09T12:18:26.574Z,26.70
2018-06-09T12:20:55.376Z,26.70
2018-06-09T12:23:24.175Z,26.80
2018-06-09T12:25:52.991Z,26.90
2018-06-09T12:28:21.823Z,26.90
2018-06-09T12:30:50.715Z,27.00
2018-06-09T12:33:19.520Z,27.10
2018-06-09T12:35:48.327Z,27.30
2018-06-09T12:38:17.192Z,27.40
2018-06-09T12:40:46.182Z,27.70
2018-06-09T12:43:14.987Z,28.00
2018-06-09T12:45:43.779Z,28.30
2018-06-09T12:48:12.583Z,28.70
2018-06-09T12:50:41.391Z,29.10
2018-06-09T12:53:10.217Z,29.40
2018-06-09T12:55:38.990Z,29.70
2018-06-09T12:58:07.794Z,29.90
2018-06-09T13:00:36.830Z,30.20
2018-06-09T13:03:05.615Z,30.30
2018-06-09T13:05:34.420Z,30.60
2018-06-09T13:08:03.230Z,30.70
2018-06-09T13:10:32.034Z,30.80
2018-06-09T13:13:00.835Z,30.70
2018-06-09T13:15:29.635Z,30.70
2018-06-09T13:17:58.464Z,30.70
2018-06-09T13:20:27.257Z,30.60
2018-06-09T13:22:56.067Z,30.60
2018-06-09T13:25:24.911Z,30.60
2018-06-09T13:27:53.677Z,30.30
2018-06-09T13:30:22.501Z,30.10
2018-06-09T13:32:51.331Z,29.90
2018-06-09T13:35:20.213Z,30.00
2018-06-09T13:37:49.111Z,30.00
2018-06-09T13:40:17.915Z,30.10
2018-06-09T13:42:46.793Z,30.10
2018-06-09T13:45:15.591Z,30.00
2018-06-09T13:47:45.298Z,30.00
2018-06-09T13:50:15.399Z,29.90
2018-06-09T13:52:44.562Z,29.90
2018-06-09T13:57:41.839Z,30.00
2018-06-09T14:00:11.650Z,29.90
2018-06-09T14:02:40.468Z,29.90
2018-06-09T14:05:09.251Z,29.70
2018-06-09T14:07:38.042Z,29.60
2018-06-09T14:10:06.971Z,29.40
2018-06-09T14:12:35.758Z,29.30
2018-06-09T14:15:05.115Z,29.30
2018-06-09T14:17:33.899Z,29.40
2018-06-09T14:20:02.695Z,29.50
2018-06-09T14:22:31.490Z,29.40
2018-06-09T14:25:00.299Z,29.50
2018-06-09T14:27:29.099Z,29.40
2018-06-09T14:29:57.899Z,29.40
2018-06-09T14:32:26.739Z,29.30
2018-06-09T14:34:55.542Z,29.40
2018-06-09T14:37:24.336Z,29.60
2018-06-09T14:39:53.134Z,29.90
2018-06-09T14:42:21.935Z,29.80
2018-06-09T14:44:50.982Z,29.70
2018-06-09T14:47:19.817Z,29.90
2018-06-09T14:49:48.787Z,30.20
2018-06-09T14:52:17.575Z,30.30
2018-06-09T14:54:46.414Z,30.10
2018-06-09T14:57:15.205Z,29.90
2018-06-09T14:59:44.019Z,29.80
2018-06-09T15:02:12.912Z,29.60
2018-06-09T15:04:41.703Z,29.50
2018-06-09T15:07:10.493Z,29.60
2018-06-09T15:09:39.316Z,29.50
2018-06-09T15:12:08.119Z,29.50
2018-06-09T15:14:36.919Z,29.10
2018-06-09T15:17:05.731Z,29.00
2018-06-09T15:19:34.578Z,29.00
2018-06-09T15:22:04.215Z,29.00
2018-06-09T15:24:33.114Z,28.90
2018-06-09T15:27:02.276Z,28.90
2018-06-09T15:29:31.099Z,28.90
2018-06-09T15:31:59.904Z,29.20
2018-06-09T15:34:28.710Z,29.40
2018-06-09T15:36:57.518Z,29.60
2018-06-09T15:39:26.359Z,29.60
2018-06-09T15:41:55.400Z,29.60
2018-06-09T15:44:24.175Z,29.70
2018-06-09T15:46:53.028Z,29.70
2018-06-09T15:49:21.827Z,29.80
2018-06-09T15:51:51.571Z,29.90
2018-06-09T15:54:20.376Z,30.10
2018-06-09T15:56:49.222Z,30.10
2018-06-09T15:59:18.095Z,30.10
2018-06-09T16:01:46.899Z,30.30
2018-06-09T16:04:15.694Z,30.40
2018-06-09T16:06:44.503Z,30.60
2018-06-09T16:09:13.390Z,30.50
2018-06-09T16:14:10.594Z,30.00
2018-06-09T16:16:39.399Z,29.80
2018-06-09T16:19:08.182Z,29.60
2018-06-09T16:21:36.991Z,29.40
2018-06-09T16:24:05.794Z,29.10
2018-06-09T16:26:34.596Z,28.60
2018-06-09T16:29:03.387Z,28.20
2018-06-09T16:31:32.178Z,27.80
2018-06-09T16:34:00.970Z,27.60
2018-06-09T16:36:29.777Z,27.60
2018-06-09T16:38:58.633Z,27.60
2018-06-09T16:41:27.412Z,27.60
2018-06-09T16:43:56.194Z,27.50
2018-06-09T16:46:25.000Z,27.40
2018-06-09T16:48:53.790Z,27.30
2018-06-09T16:51:22.618Z,27.10
2018-06-09T16:53:51.416Z,27.00
2018-06-09T16:56:20.224Z,26.90
2018-06-09T16:58:49.010Z,26.90
2018-06-09T17:01:17.979Z,26.80
2018-06-09T17:03:46.775Z,26.90
2018-06-09T17:06:15.660Z,26.90
2018-06-09T17:08:44.456Z,26.90
2018-06-09T17:11:13.244Z,26.90
2018-06-09T17:13:42.126Z,26.90
2018-06-09T17:16:11.012Z,26.90
2018-06-09T17:18:39.801Z,27.00
2018-06-09T17:21:08.588Z,27.10
2018-06-09T17:23:37.388Z,27.10
2018-06-09T17:26:06.174Z,27.20
2018-06-09T17:28:34.979Z,27.20
2018-06-09T17:31:03.766Z,27.30
2018-06-09T17:33:32.569Z,27.30
2018-06-09T17:36:01.349Z,27.20
2018-06-09T17:38:30.152Z,27.10
2018-06-09T17:40:59.275Z,27.10
2018-06-09T17:43:28.539Z,27.10
2018-06-09T17:45:57.322Z,27.10
2018-06-09T17:48:26.183Z,27.10
2018-06-09T17:50:54.961Z,27.10
2018-06-09T17:53:23.867Z,27.00
2018-06-09T17:55:52.670Z,27.00
2018-06-09T17:58:21.495Z,27.00
2018-06-09T18:00:50.323Z,27.00
2018-06-09T18:03:19.130Z,26.90
2018-06-09T18:05:47.947Z,26.90
2018-06-09T18:08:16.746Z,26.90
2018-06-09T18:10:45.563Z,26.80
2018-06-09T18:13:14.366Z,26.80
2018-06-09T18:15:43.244Z,26.80
2018-06-09T18:18:12.121Z,26.80
2018-06-09T18:20:41.031Z,26.70
2018-06-09T18:23:10.098Z,26.70
2018-06-09T18:25:39.018Z,26.70
2018-06-09T18:28:07.887Z,26.70
2018-06-09T18:30:36.703Z,26.60
2018-06-09T18:33:05.523Z,26.50
2018-06-09T18:35:34.323Z,26.40
2018-06-09T18:38:03.119Z,26.30
2018-06-09T18:40:31.919Z,26.20
2018-06-09T18:43:00.735Z,26.00
2018-06-09T18:45:29.615Z,25.90
2018-06-09T18:47:58.411Z,25.70
2018-06-09T18:50:27.218Z,25.60
2018-06-09T18:52:56.124Z,25.40
2018-06-09T18:55:24.909Z,25.30
2018-06-09T18:57:53.859Z,25.20
2018-06-09T19:00:22.988Z,25.10
2018-06-09T19:02:51.787Z,25.00
2018-06-09T19:05:20.632Z,24.90
2018-06-09T19:07:49.441Z,24.90
2018-06-09T19:10:18.252Z,24.90
2018-06-09T19:12:47.055Z,24.80
2018-06-09T19:15:15.888Z,24.70
2018-06-09T19:17:44.779Z,24.70
2018-06-09T19:20:13.586Z,24.60
2018-06-09T19:22:42.456Z,24.50
2018-06-09T19:25:11.270Z,24.40
2018-06-09T19:27:40.071Z,24.30
2018-06-09T19:30:08.874Z,24.20
2018-06-09T19:32:37.662Z,24.10
2018-06-09T19:35:06.471Z,24.00
2018-06-09T19:37:35.271Z,23.90
2018-06-09T19:40:04.083Z,23.80
2018-06-09T19:42:32.879Z,23.80
2018-06-09T19:45:01.750Z,23.70
2018-06-09T19:47:30.635Z,23.60
2018-06-09T19:50:00.245Z,23.50
2018-06-09T19:52:29.026Z,23.50
2018-06-09T19:54:57.836Z,23.40
2018-06-09T19:57:26.760Z,23.40
2018-06-09T19:59:55.536Z,23.40
2018-06-09T20:02:24.343Z,23.40
2018-06-09T20:04:53.143Z,23.40
2018-06-09T20:07:21.959Z,23.40
2018-06-09T20:09:50.851Z,23.40
2018-06-09T20:12:19.651Z,23.40
2018-06-09T20:14:48.437Z,23.40
2018-06-09T20:17:17.236Z,23.50
2018-06-09T20:19:46.457Z,23.50
2018-06-09T20:22:15.232Z,23.40
2018-06-09T20:24:44.043Z,23.40
2018-06-09T20:27:12.922Z,23.30
2018-06-09T20:29:41.767Z,23.20
2018-06-09T20:32:10.566Z,23.20
2018-06-09T20:34:39.349Z,23.10
2018-06-09T20:37:08.163Z,23.00
2018-06-09T20:39:36.975Z,23.00
2018-06-09T20:44:34.261Z,22.90
2018-06-09T20:47:03.076Z,22.90
2018-06-09T20:49:31.883Z,22.90
2018-06-09T20:52:00.755Z,22.90
2018-06-09T20:54:29.638Z,22.90
2018-06-09T20:56:58.443Z,22.90
2018-06-09T20:59:27.236Z,22.90
2018-06-09T21:01:56.031Z,22.90
2018-06-09T21:04:24.828Z,22.90
2018-06-09T21:06:53.648Z,22.80
2018-06-09T21:11:50.923Z,22.70
2018-06-09T21:14:19.725Z,22.70
2018-06-09T21:16:48.536Z,22.60
2018-06-09T21:19:17.334Z,22.50
2018-06-09T21:21:46.139Z,22.50
2018-06-09T21:24:14.960Z,22.40
2018-06-09T21:26:49.331Z,22.40
2018-06-09T21:29:23.653Z,22.40
2018-06-09T21:31:52.518Z,22.40
2018-06-09T21:34:33.502Z,22.30
2018-06-09T21:37:08.017Z,22.30
2018-06-09T21:39:42.444Z,22.20
2018-06-09T21:43:20.528Z,22.20
2018-06-09T21:45:50.499Z,22.20
2018-06-09T21:48:20.063Z,22.10
2018-06-09T21:50:49.376Z,22.10
2018-06-09T21:53:18.250Z,22.10
2018-06-09T21:55:47.058Z,22.00
2018-06-09T21:58:15.847Z,22.00
2018-06-09T22:00:44.674Z,22.00
2018-06-09T22:03:13.493Z,22.00
2018-06-09T22:05:42.317Z,22.20
2018-06-09T22:08:11.123Z,22.20
2018-06-09T22:10:39.943Z,22.30
2018-06-09T22:13:08.750Z,22.30
2018-06-09T22:15:37.901Z,22.30
2018-06-09T22:18:06.692Z,22.30
2018-06-09T22:20:35.511Z,22.30
2018-06-09T22:23:04.309Z,22.30
2018-06-09T22:25:38.655Z,22.30
2018-06-09T22:28:07.467Z,22.30
2018-06-09T22:30:36.299Z,22.20
2018-06-09T22:33:05.135Z,22.30
2018-06-09T22:35:33.933Z,22.30
2018-06-09T22:38:02.721Z,22.30
2018-06-09T22:40:32.164Z,22.20
2018-06-09T22:43:01.309Z,22.20
2018-06-09T22:45:30.418Z,22.20
2018-06-09T22:47:59.222Z,22.20
2018-06-09T22:50:28.815Z,22.20
2018-06-09T22:52:58.238Z,22.20
2018-06-09T22:55:27.057Z,22.20
2018-06-09T22:57:56.370Z,22.20
2018-06-09T23:00:51.596Z,22.20
2018-06-09T23:03:20.415Z,22.20
2018-06-09T23:05:49.239Z,22.20
2018-06-09T23:08:18.047Z,22.20
2018-06-09T23:10:46.910Z,22.10
2018-06-09T23:13:15.717Z,22.20
2018-06-09T23:15:44.544Z,22.10
2018-06-09T23:18:13.355Z,22.10
2018-06-09T23:20:42.216Z,22.10
2018-06-09T23:23:11.376Z,22.00
2018-06-09T23:25:40.171Z,22.00
2018-06-09T23:28:08.976Z,21.90
2018-06-09T23:30:37.815Z,21.90
2018-06-09T23:33:06.609Z,21.90
2018-06-09T23:35:35.422Z,21.80
2018-06-09T23:38:04.417Z,21.90
2018-06-09T23:40:33.238Z,21.80
2018-06-09T23:43:02.260Z,21.80
2018-06-09T23:45:31.750Z,21.80
2018-06-09T23:48:00.563Z,21.80
2018-06-09T23:50:29.365Z,21.80
2018-06-09T23:52:58.174Z,21.80
2018-06-09T23:55:27.287Z,21.80
2018-06-09T23:57:56.086Z,21.80
